Data for 01/20/2010

Time Sea-Level Adjusted Pressure Absolute Pressure Temperature Relative Humidity Dew Point   
(mb) (inHg) (mb) (inHg) (C) (F) (%) (C) (F)
00:05 1002 29.59 831 24.54 -1.7 28.9 60 -8.5 16.8
00:10 1001 29.56 831 24.54 -1.8 28.8 60 -8.5 16.6
00:15 1001 29.56 831 24.54 -2 28.5 61 -8.6 16.6
00:20 1001 29.56 831 24.54 -1.9 28.7 60 -8.6 16.5
00:25 1001 29.56 831 24.54 -2 28.3 61 -8.6 16.4
00:30 1001 29.56 831 24.54 -2.2 28 60 -8.9 16.1
00:35 1001 29.56 831 24.54 -2.1 28.3 60 -8.9 16.1
00:40 1001 29.56 830 24.51 -2.1 28.2 61 -8.7 16.3
00:45 1001 29.56 830 24.51 -2.2 28 60 -8.9 16
00:50 1001 29.56 830 24.51 -2.2 28 60 -9 15.9
00:55 1001 29.56 830 24.51 -2.3 27.8 60 -9.1 15.7
01:00 1001 29.56 830 24.51 -2.7 27.1 60 -9.4 15.1
01:05 1001 29.56 830 24.51 -2.6 27.3 59 -9.5 15
01:10 1001 29.56 830 24.51 -2.7 27.2 59 -9.6 14.8
01:15 1001 29.56 830 24.51 -2.6 27.2 59 -9.6 14.7
01:20 1001 29.56 830 24.51 -2.6 27.3 60 -9.4 15.2
01:25 1001 29.56 830 24.51 -2.6 27.3 59 -9.6 14.8
01:30 1001 29.56 830 24.51 -2.8 27 59 -9.8 14.4
01:35 1001 29.56 830 24.51 -3.1 26.5 59 -10 13.9
01:40 1001 29.56 830 24.51 -3.2 26.3 58 -10.2 13.7
01:45 1001 29.56 830 24.51 -3.1 26.4 59 -10 13.9
01:50 1001 29.56 831 24.54 -2.9 26.8 57 -10.2 13.7
01:55 1001 29.56 831 24.54 -3 26.6 58 -10.1 13.8
02:00 1001 29.56 831 24.54 -3.2 26.2 59 -10.1 13.7
02:05 1001 29.56 830 24.51 -3 26.7 59 -9.9 14.1
02:10 1001 29.56 830 24.51 -2.9 26.7 60 -9.7 14.5
02:15 1001 29.56 830 24.51 -2.9 26.8 60 -9.6 14.8
02:20 1001 29.56 830 24.51 -2.9 26.8 60 -9.6 14.7
02:25 1001 29.56 830 24.51 -2.8 26.9 60 -9.5 14.8
02:30 1001 29.56 830 24.51 -2.7 27.2 59 -9.7 14.6
02:35 1001 29.56 830 24.51 -2.7 27.2 60 -9.5 14.9
02:40 1001 29.56 830 24.51 -2.7 27.1 60 -9.5 14.9
02:45 1001 29.56 830 24.51 -2.7 27.1 59 -9.6 14.7
02:50 1001 29.56 830 24.51 -2.7 27.1 59 -9.7 14.5
02:55 1001 29.56 830 24.51 -2.6 27.3 59 -9.6 14.7
03:00 1001 29.56 830 24.51 -2.6 27.3 59 -9.6 14.7
03:05 1001 29.56 830 24.51 -2.8 27 59 -9.7 14.6
03:10 1001 29.56 830 24.51 -2.8 26.9 60 -9.6 14.8
03:15 1001 29.56 830 24.51 -2.8 26.9 59 -9.7 14.6
03:20 1001 29.56 830 24.51 -2.8 27 60 -9.6 14.7
03:25 1001 29.56 830 24.51 -2.8 26.9 60 -9.5 14.8
03:30 1001 29.56 830 24.51 -2.7 27.1 59 -9.6 14.8
03:35 1001 29.56 830 24.51 -2.9 26.9 60 -9.5 14.9
03:40 1001 29.56 830 24.51 -2.8 27 59 -9.7 14.5
03:45 1001 29.56 830 24.51 -3 26.5 59 -10 14
03:50 1001 29.56 830 24.51 -3.7 25.4 60 -10.3 13.5
03:55 1001 29.56 830 24.51 -3.7 25.4 61 -10.2 13.6
04:00 1001 29.56 830 24.51 -2.9 26.8 59 -9.9 14.1
04:05 1001 29.56 830 24.51 -3.2 26.3 59 -10 14
04:10 1001 29.56 830 24.51 -3.4 25.8 60 -10.1 13.8
04:15 1001 29.56 830 24.51 -2.6 27.3 58 -9.8 14.4
04:20 1001 29.56 830 24.51 -2.6 27.4 58 -9.7 14.5
04:25 1001 29.56 830 24.51 -2.4 27.6 57 -9.7 14.5
04:30 1000 29.53 830 24.51 -2.4 27.7 58 -9.6 14.7
04:35 1001 29.56 830 24.51 -2.5 27.5 58 -9.6 14.7
04:40 1001 29.56 830 24.51 -2.8 27 60 -9.6 14.8
04:45 1001 29.56 830 24.51 -2.9 26.8 59 -9.8 14.3
04:50 1001 29.56 830 24.51 -3 26.5 60 -9.8 14.4
04:55 1001 29.56 830 24.51 -3 26.6 58 -10 13.9
05:00 1001 29.56 830 24.51 -3.1 26.4 59 -10.1 13.8
05:05 1001 29.56 830 24.51 -3.1 26.5 57 -10.3 13.4
05:10 1001 29.56 830 24.51 -3.1 26.4 57 -10.4 13.3
05:15 1001 29.56 830 24.51 -3 26.7 57 -10.4 13.3
05:20 1001 29.56 830 24.51 -3 26.6 56 -10.6 13
05:25 1001 29.56 830 24.51 -3.2 26.2 56 -10.7 12.8
05:30 1001 29.56 830 24.51 -3.4 25.8 59 -10.5 13.2
05:35 1001 29.56 830 24.51 -3.8 25.1 60 -10.5 13.1
05:40 1001 29.56 830 24.51 -4.3 24.3 59 -11.1 12.1
05:45 1001 29.56 830 24.51 -4.4 24.1 60 -11 12.1
05:50 1001 29.56 830 24.51 -3.9 25 59 -10.7 12.7
05:55 1001 29.56 830 24.51 -4 24.9 59 -10.9 12.4
06:00 1001 29.56 830 24.51 -3.4 25.9 58 -10.6 12.9
06:05 1001 29.56 830 24.51 -3.3 26.1 57 -10.7 12.8
06:10 1001 29.56 831 24.54 -3.3 26 57 -10.8 12.6
06:15 1001 29.56 830 24.51 -3.6 25.6 57 -10.8 12.5
06:20 1001 29.56 831 24.54 -3.4 25.9 57 -10.6 12.8
06:25 1001 29.56 831 24.54 -3.8 25.2 59 -10.6 13
06:30 1001 29.56 831 24.54 -4 24.8 61 -10.5 13.1
06:35 1001 29.56 831 24.54 -4.3 24.3 62 -10.5 13.1
06:40 1001 29.56 831 24.54 -4.5 23.9 63 -10.5 13
06:45 1001 29.56 831 24.54 -4.5 23.8 62 -10.7 12.7
06:50 1001 29.56 831 24.54 -4.6 23.8 61 -11 12.1
06:55 1001 29.56 831 24.54 -4.1 24.6 61 -10.5 13.1
07:00 1001 29.56 831 24.54 -4.2 24.4 61 -10.7 12.8
07:05 1001 29.56 830 24.51 -4.2 24.4 61 -10.7 12.7
07:10 1001 29.56 831 24.54 -4.3 24.3 61 -10.8 12.6
07:15 1001 29.56 831 24.54 -4.3 24.3 61 -10.7 12.8
07:20 1001 29.56 831 24.54 -4.2 24.4 61 -10.6 12.8
07:25 1001 29.56 830 24.51 -4 24.8 60 -10.7 12.7
07:30 1001 29.56 830 24.51 -4.1 24.6 61 -10.6 13
07:35 1001 29.56 830 24.51 -4.6 23.7 63 -10.6 12.9
07:40 1001 29.56 830 24.51 -4.5 23.9 63 -10.5 13.1
07:45 1001 29.56 830 24.51 -4.2 24.4 63 -10.2 13.6
07:50 1001 29.56 830 24.51 -4.3 24.3 63 -10.2 13.6
07:55 1001 29.56 830 24.51 -3.9 25.1 61 -10.2 13.6
08:00 1001 29.56 830 24.51 -3.6 25.5 62 -9.9 14.1
08:05 1001 29.56 830 24.51 -3.5 25.7 60 -10.1 13.8
08:10 1001 29.56 830 24.51 -3.3 26.1 60 -9.9 14.2
08:15 1001 29.56 830 24.51 -3.1 26.5 58 -10.1 13.8
08:20 1001 29.56 830 24.51 -2.8 27 58 -9.8 14.3
08:25 1001 29.56 830 24.51 -2.7 27.2 57 -10 14
08:30 1001 29.56 830 24.51 -2.3 27.8 56 -9.9 14.2
08:35 1001 29.56 830 24.51 -2.1 28.3 56 -9.7 14.6
08:40 1001 29.56 830 24.51 -2.6 27.4 59 -9.5 15
08:45 1001 29.56 830 24.51 -2.7 27.1 58 -9.9 14.1
08:50 1001 29.56 830 24.51 -2.4 27.6 58 -9.7 14.6
08:55 1001 29.56 830 24.51 -2.1 28.2 56 -9.7 14.6
09:00 1001 29.56 830 24.51 -2 28.3 57 -9.5 14.9
09:05 1001 29.56 830 24.51 -2.1 28.3 56 -9.7 14.6
09:10 1001 29.56 830 24.51 -2 28.3 57 -9.5 14.9
09:15 1001 29.56 830 24.51 -2.1 28.1 58 -9.4 15
09:20 1001 29.56 830 24.51 -2.1 28.1 58 -9.3 15.3
09:25 1001 29.56 830 24.51 -2 28.4 56 -9.5 14.8
09:30 1001 29.56 830 24.51 -1.7 28.9 56 -9.5 14.9
09:35 1001 29.56 830 24.51 -1.5 29.3 56 -9.2 15.5
09:40 1001 29.56 830 24.51 -1.3 29.6 55 -9.3 15.2
09:45 1001 29.56 830 24.51 -1.1 30 54 -9.2 15.4
09:50 1001 29.56 830 24.51 -0.9 30.4 53 -9.3 15.2
09:55 1001 29.56 830 24.51 -0.8 30.6 53 -9.2 15.4
10:00 1001 29.56 830 24.51 -0.9 30.4 54 -9 15.8
10:05 1001 29.56 830 24.51 -0.9 30.4 53 -9.3 15.2
10:10 1001 29.56 830 24.51 -0.7 30.7 52 -9.3 15.2
10:15 1001 29.56 830 24.51 -0.5 31 52 -9.1 15.6
10:20 1001 29.56 830 24.51 -0.4 31.3 51 -9.3 15.3
10:25 1001 29.56 830 24.51 -0.1 31.9 51 -9.1 15.6
10:30 1001 29.56 830 24.51 0.8 33.5 49 -8.8 16.1
10:35 1001 29.56 830 24.51 2.1 35.9 45 -8.5 16.7
10:40 1001 29.56 830 24.51 2.5 36.4 44 -8.5 16.8
10:45 1001 29.56 830 24.51 2.1 35.8 45 -8.5 16.6
10:50 1001 29.56 830 24.51 1.6 34.9 48 -8.2 17.2
10:55 1001 29.56 830 24.51 0.6 33.1 51 -8.5 16.7
11:00 1001 29.56 830 24.51 0.4 32.7 48 -9.3 15.3
11:05 1001 29.56 830 24.51 0.4 32.8 47 -9.5 14.9
11:10 1001 29.56 830 24.51 0.6 33.1 47 -9.4 15
11:15 1001 29.56 830 24.51 1 33.7 46 -9.5 14.8
11:20 1001 29.56 830 24.51 1.9 35.5 44 -9 15.8
11:25 1001 29.56 830 24.51 1.4 34.4 45 -9.4 15.2
11:30 1001 29.56 830 24.51 1.6 35 46 -8.8 16.2
11:35 1001 29.56 830 24.51 1.8 35.2 44 -9.2 15.4
11:40 1001 29.56 830 24.51 2.4 36.3 42 -9.3 15.3
11:45 1001 29.56 830 24.51 2.5 36.6 43 -8.8 16.1
11:50 1001 29.56 830 24.51 2.6 36.7 42 -9.1 15.7
11:55 1001 29.56 830 24.51 2.3 36.1 43 -9.2 15.5
12:00 1001 29.56 830 24.51 3 37.5 39 -9.6 14.7
12:05 1001 29.56 830 24.51 2.8 37 40 -9.5 14.9
12:10 1001 29.56 830 24.51 2.5 36.5 41 -9.5 15
12:15 1000 29.53 830 24.51 2.8 37 39 -9.8 14.3
12:20 1000 29.53 830 24.51 3.4 38.1 37 -9.9 14.1
12:25 1000 29.53 830 24.51 2.9 37.2 40 -9.5 14.8
12:30 1000 29.53 830 24.51 3 37.4 40 -9.2 15.4
12:35 1000 29.53 829 24.48 3.3 37.9 38 -9.7 14.5
12:40 1000 29.53 829 24.48 2.9 37.2 40 -9.4 15.1
12:45 1000 29.53 829 24.48 2.8 37.1 41 -9.1 15.6
12:50 1000 29.53 829 24.48 3.2 37.7 40 -9.1 15.6
12:55 1000 29.53 829 24.48 3.4 38.1 41 -8.7 16.3
13:00 1000 29.53 829 24.48 3.4 38.1 38 -9.6 14.8
13:05 1000 29.53 829 24.48 3.6 38.5 39 -9.2 15.5
13:10 1000 29.53 829 24.48 3.3 37.9 37 -9.9 14.1
13:15 1000 29.53 829 24.48 3.4 38.1 42 -8.3 17
13:20 1000 29.53 829 24.48 3.3 38 40 -9.1 15.6
13:25 1000 29.53 829 24.48 3.5 38.3 40 -8.8 16.2
13:30 1000 29.53 829 24.48 2.8 37 40 -9.4 15
13:35 1000 29.53 829 24.48 3.1 37.5 43 -8.2 17.2
13:40 1000 29.53 829 24.48 4 39.2 38 -9 15.7
13:45 1000 29.53 829 24.48 4 39.2 42 -7.7 18.2
13:50 1000 29.53 829 24.48 3.4 38 42 -8.4 16.9
13:55 1000 29.53 829 24.48 3.6 38.5 44 -7.6 18.2
14:00 999 29.5 829 24.48 3.3 37.9 44 -7.9 17.7
14:05 999 29.5 829 24.48 3.3 38 41 -8.8 16.2
14:10 999 29.5 829 24.48 3.6 38.4 43 -7.8 18
14:15 999 29.5 829 24.48 3.8 38.9 42 -8 17.6
14:20 1000 29.53 829 24.48 3.2 37.8 45 -7.6 18.3
14:25 1000 29.53 829 24.48 2.4 36.4 48 -7.5 18.5
14:30 1000 29.53 829 24.48 2.6 36.7 45 -8 17.6
14:35 1000 29.53 829 24.48 2.7 36.9 45 -7.9 17.8
14:40 1000 29.53 829 24.48 2.9 37.1 44 -8.2 17.2
14:45 1000 29.53 829 24.48 3 37.3 44 -8.2 17.3
14:50 1000 29.53 829 24.48 3 37.3 45 -7.9 17.7
14:55 1000 29.53 829 24.48 2.7 36.8 46 -7.9 17.8
15:00 1000 29.53 829 24.48 1.8 35.3 47 -8.4 16.9
15:05 1000 29.53 829 24.48 1.4 34.5 49 -8.2 17.3
15:10 1000 29.53 829 24.48 1 33.8 51 -8 17.5
15:15 1000 29.53 829 24.48 0.9 33.7 51 -8.2 17.2
15:20 1000 29.53 829 24.48 0.2 32.4 52 -8.6 16.5
15:25 1000 29.53 829 24.48 -0.1 31.9 54 -8.3 17.1
15:30 1000 29.53 829 24.48 0 32.1 52 -8.7 16.3
15:35 1000 29.53 829 24.48 0.2 32.4 52 -8.6 16.5
15:40 1000 29.53 829 24.48 0.5 32.9 52 -8.3 17.1
15:45 1000 29.53 829 24.48 0.5 33 51 -8.3 17
15:50 1000 29.53 829 24.48 0.3 32.5 54 -8 17.5
15:55 1000 29.53 829 24.48 -0.1 31.8 55 -8.2 17.3
16:00 1000 29.53 829 24.48 0.3 32.6 54 -8 17.6
16:05 1000 29.53 829 24.48 0.2 32.4 55 -7.7 18.1
16:10 1000 29.53 829 24.48 0.2 32.4 54 -8 17.6
16:15 1000 29.53 829 24.48 0.1 32.2 54 -8.2 17.2
16:20 1000 29.53 829 24.48 0.1 32.2 53 -8.3 17
16:25 1000 29.53 829 24.48 0.4 32.7 52 -8.4 16.9
16:30 1000 29.53 829 24.48 0.4 32.7 52 -8.3 17
16:35 1000 29.53 829 24.48 0.1 32.2 53 -8.3 17
16:40 1000 29.53 829 24.48 -0 32 54 -8.2 17.3
16:45 1000 29.53 829 24.48 -0.1 31.9 55 -8.2 17.3
16:50 1000 29.53 829 24.48 0 32.1 52 -8.6 16.5
16:55 1000 29.53 829 24.48 0.2 32.3 52 -8.6 16.6
17:00 1000 29.53 829 24.48 0.1 32.2 53 -8.3 17.1
17:05 1000 29.53 829 24.48 -0.1 31.7 53 -8.6 16.6
17:10 1000 29.53 829 24.48 -0.3 31.5 53 -8.8 16.2
17:15 1000 29.53 829 24.48 -0.4 31.2 54 -8.7 16.4
17:20 1000 29.53 829 24.48 -0.6 31 55 -8.5 16.6
17:25 1000 29.53 829 24.48 -0.5 31 53 -8.9 16
17:30 1000 29.53 829 24.48 -0.5 31.1 53 -8.9 16
17:35 1000 29.53 829 24.48 -0.4 31.2 50 -9.5 14.8
17:40 1000 29.53 829 24.48 -0.2 31.6 53 -8.7 16.3
17:45 1000 29.53 829 24.48 -0.6 30.9 55 -8.7 16.4
17:50 1000 29.53 829 24.48 -0.7 30.7 56 -8.4 16.9
17:55 1000 29.53 829 24.48 -0.7 30.7 57 -8.3 17.1
18:00 1000 29.53 829 24.48 -0.7 30.7 56 -8.4 16.9
18:05 1000 29.53 829 24.48 -0.6 31 55 -8.5 16.7
18:10 1000 29.53 829 24.48 -0.5 31.1 56 -8.2 17.2
18:15 1000 29.53 829 24.48 -0.8 30.6 56 -8.4 16.8
18:20 1000 29.53 829 24.48 -0.8 30.6 57 -8.3 17
18:25 1000 29.53 829 24.48 -1 30.3 56 -8.6 16.5
18:30 1000 29.53 829 24.48 -0.7 30.8 56 -8.4 17
18:35 1000 29.53 829 24.48 -0.4 31.3 55 -8.3 17.1
18:40 1000 29.53 829 24.48 -0.3 31.5 54 -8.4 16.8
18:45 1000 29.53 829 24.48 -0.1 31.9 54 -8.3 17
18:50 1000 29.53 829 24.48 -0.4 31.3 54 -8.5 16.7
18:55 1000 29.53 829 24.48 -0.8 30.5 56 -8.5 16.7
19:00 1000 29.53 829 24.48 -0.6 30.9 56 -8.4 16.9
19:05 1000 29.53 829 24.48 -0.5 31.1 56 -8.3 17.1
19:10 1000 29.53 829 24.48 -0.8 30.5 57 -8.3 17.1
19:15 1000 29.53 829 24.48 -0.4 31.2 56 -8.3 17.1
19:20 1000 29.53 829 24.48 -1 30.3 58 -8.3 17.1
19:25 1000 29.53 829 24.48 -1 30.1 57 -8.4 16.8
19:30 1000 29.53 829 24.48 -1.1 30.1 58 -8.3 17.1
19:35 1000 29.53 829 24.48 -0.9 30.5 57 -8.3 17
19:40 1000 29.53 829 24.48 -0.6 30.9 57 -8.1 17.3
19:45 1000 29.53 829 24.48 -0.7 30.8 57 -8.3 17.1
19:50 1000 29.53 829 24.48 -0.5 31 54 -8.8 16.1
19:55 1000 29.53 829 24.48 -0.6 30.9 54 -8.7 16.3
20:00 1000 29.53 829 24.48 -0.8 30.6 55 -8.7 16.3
20:05 1000 29.53 829 24.48 -1.1 30.1 57 -8.6 16.5
20:10 1000 29.53 829 24.48 -1.3 29.7 58 -8.6 16.6
20:15 1000 29.53 829 24.48 -1.3 29.7 58 -8.5 16.7
20:20 1000 29.53 829 24.48 -1.2 29.8 58 -8.5 16.7
20:25 1000 29.53 829 24.48 -1.2 29.9 58 -8.4 16.9
20:30 1000 29.53 829 24.48 -0.9 30.4 56 -8.5 16.8
20:35 1000 29.53 829 24.48 -0.7 30.7 56 -8.5 16.6
20:40 1000 29.53 829 24.48 -1 30.2 56 -8.6 16.5
20:45 1000 29.53 829 24.48 -1.1 30 57 -8.6 16.6
20:50 1000 29.53 829 24.48 -1.3 29.7 58 -8.5 16.7
20:55 1000 29.53 829 24.48 -1.2 29.8 57 -8.6 16.5
21:00 1000 29.53 829 24.48 -1.1 30 57 -8.6 16.6
21:05 1000 29.53 829 24.48 -1.2 29.9 57 -8.6 16.5
21:10 1000 29.53 829 24.48 -1.5 29.3 58 -8.8 16.2
21:15 1000 29.53 829 24.48 -1.6 29.1 58 -8.9 16
21:20 1000 29.53 829 24.48 -1.3 29.6 57 -8.7 16.3
21:25 1000 29.53 829 24.48 -1.4 29.5 57 -8.8 16.2
21:30 1000 29.53 829 24.48 -1.5 29.4 58 -8.7 16.3
21:35 1000 29.53 829 24.48 -1.9 28.6 60 -8.7 16.4
21:40 1000 29.53 829 24.48 -1.9 28.5 60 -8.7 16.3
21:45 1000 29.53 829 24.48 -1.9 28.6 60 -8.7 16.4
21:50 1000 29.53 829 24.48 -1.8 28.7 60 -8.7 16.3
21:55 1000 29.53 829 24.48 -1.8 28.8 60 -8.6 16.5
22:00 1000 29.53 829 24.48 -1.7 28.9 59 -8.6 16.4
22:05 999 29.5 829 24.48 -1.5 29.4 58 -8.7 16.3
22:10 999 29.5 829 24.48 -1.4 29.4 58 -8.6 16.5
22:15 999 29.5 829 24.48 -1.4 29.5 57 -8.8 16.2
22:20 999 29.5 829 24.48 -1.6 29.1 58 -8.7 16.3
22:25 999 29.5 829 24.48 -2 28.5 58 -9.1 15.6
22:30 999 29.5 829 24.48 -2 28.4 57 -9.3 15.2
22:35 999 29.5 829 24.48 -1.9 28.6 57 -9.3 15.2
22:40 999 29.5 829 24.48 -1.9 28.5 59 -9 15.8
22:45 999 29.5 829 24.48 -2 28.5 59 -9 15.7
22:50 999 29.5 829 24.48 -1.9 28.6 58 -9 15.7
22:55 999 29.5 829 24.48 -2.1 28.3 59 -9 15.7
23:00 999 29.5 829 24.48 -2 28.4 58 -9.1 15.5
23:05 999 29.5 828 24.45 -2.5 27.4 60 -9.2 15.5
23:10 999 29.5 828 24.45 -2.8 27 61 -9.2 15.4
23:15 999 29.5 828 24.45 -2.7 27.2 59 -9.6 14.7
23:20 999 29.5 828 24.45 -2.8 27 60 -9.6 14.7
23:25 999 29.5 828 24.45 -2.7 27.2 60 -9.4 15.1
23:30 999 29.5 828 24.45 -2.3 27.8 59 -9.2 15.4
23:35 999 29.5 828 24.45 -1.8 28.8 56 -9.4 15.1
23:40 999 29.5 828 24.45 -1.3 29.6 57 -8.9 16
23:45 999 29.5 828 24.45 -2.2 28.1 60 -9 15.8
23:50 999 29.5 828 24.45 -2.7 27.1 61 -9.2 15.4
23:55 999 29.5 828 24.45 -3 26.7 62 -9.2 15.5
24:00 999 29.5 828 24.45 -2.9 26.8 61 -9.5 15